createdAt,value
2019-04-26T00:02:46.068Z,14.60
2019-04-26T00:05:14.452Z,14.40
2019-04-26T00:07:42.386Z,14.16
2019-04-26T00:10:24.269Z,14.18
2019-04-26T00:12:59.209Z,14.33
2019-04-26T00:15:52.390Z,14.57
2019-04-26T00:18:20.903Z,14.71
2019-04-26T00:20:48.682Z,14.60
2019-04-26T00:23:16.186Z,14.56
2019-04-26T00:25:43.911Z,14.31
2019-04-26T00:28:11.759Z,14.20
2019-04-26T00:30:40.144Z,14.23
2019-04-26T00:33:07.588Z,14.05
2019-04-26T00:35:46.908Z,14.00
2019-04-26T00:38:04.378Z,14.03
2019-04-26T00:40:32.172Z,14.02
2019-04-26T00:43:01.838Z,13.88
2019-04-26T00:45:32.562Z,13.80
2019-04-26T00:48:00.758Z,13.74
2019-04-26T00:50:30.057Z,13.55
2019-04-26T00:52:59.024Z,13.47
2019-04-26T00:55:27.389Z,13.50
2019-04-26T00:57:55.689Z,13.50
2019-04-26T01:00:23.895Z,13.56
2019-04-26T01:02:54.407Z,13.58
2019-04-26T01:05:23.109Z,13.45
2019-04-26T01:07:53.327Z,13.37
2019-04-26T01:10:21.641Z,13.40
2019-04-26T01:12:49.401Z,13.46
2019-04-26T01:15:18.789Z,13.62
2019-04-26T01:17:46.185Z,13.60
2019-04-26T01:20:14.296Z,13.65
2019-04-26T01:22:46.731Z,13.76
2019-04-26T01:25:42.173Z,13.74
2019-04-26T01:28:15.235Z,13.65
2019-04-26T01:30:43.908Z,13.51
2019-04-26T01:33:11.952Z,13.42
2019-04-26T01:35:39.688Z,13.39
2019-04-26T01:38:11.216Z,13.32
2019-04-26T01:40:39.407Z,13.21
2019-04-26T01:43:26.421Z,13.32
2019-04-26T01:46:01.701Z,12.98
2019-04-26T01:48:47.633Z,13.14
2019-04-26T01:51:28.772Z,13.08
2019-04-26T01:53:56.466Z,13.00
2019-04-26T01:56:29.724Z,12.96
2019-04-26T01:58:57.304Z,12.93
2019-04-26T02:01:50.335Z,12.62
2019-04-26T02:04:18.180Z,12.90
2019-04-26T02:06:45.622Z,12.96
2019-04-26T02:09:13.212Z,12.91
2019-04-26T02:11:41.082Z,13.16
2019-04-26T02:14:09.144Z,13.24
2019-04-26T02:16:37.257Z,13.35
2019-04-26T02:19:05.051Z,13.19
2019-04-26T02:21:55.215Z,13.15
2019-04-26T02:24:32.178Z,13.10
2019-04-26T02:27:01.635Z,13.20
2019-04-26T02:29:29.221Z,13.29
2019-04-26T02:32:03.118Z,13.16
2019-04-26T02:34:36.016Z,13.05
2019-04-26T02:37:06.097Z,12.82
2019-04-26T02:39:37.876Z,12.72
2019-04-26T02:42:11.309Z,12.67
2019-04-26T02:44:52.189Z,12.94
2019-04-26T02:47:53.055Z,12.76
2019-04-26T02:50:36.297Z,12.79
2019-04-26T02:53:21.268Z,12.88
2019-04-26T02:56:30.338Z,12.86
2019-04-26T02:59:34.127Z,12.90
2019-04-26T03:02:04.045Z,12.98
2019-04-26T03:04:34.168Z,13.23
2019-04-26T03:07:10.426Z,13.26
2019-04-26T03:09:43.188Z,13.26
2019-04-26T03:12:14.579Z,13.07
2019-04-26T03:15:12.763Z,13.14
2019-04-26T03:17:43.041Z,13.24
2019-04-26T03:20:14.753Z,13.18
2019-04-26T03:22:52.401Z,13.19
2019-04-26T03:25:40.689Z,13.00
2019-04-26T03:28:57.281Z,12.75
2019-04-26T03:31:54.530Z,12.45
2019-04-26T03:34:54.489Z,12.18
2019-04-26T03:37:53.724Z,12.08
2019-04-26T03:40:44.496Z,12.00
2019-04-26T03:43:34.367Z,11.99
2019-04-26T03:46:20.981Z,12.15
2019-04-26T03:49:13.307Z,12.36
2019-04-26T03:52:18.297Z,12.55
2019-04-26T03:54:50.086Z,12.67
2019-04-26T03:57:32.196Z,12.62
2019-04-26T04:00:41.482Z,12.69
2019-04-26T04:03:29.959Z,12.64
2019-04-26T04:06:01.371Z,12.64
2019-04-26T04:08:46.677Z,12.82
2019-04-26T04:11:18.903Z,12.65
2019-04-26T04:13:57.456Z,12.49
2019-04-26T04:16:38.560Z,12.34
2019-04-26T04:19:53.460Z,12.18
2019-04-26T04:22:24.501Z,12.37
2019-04-26T04:24:56.005Z,12.50
2019-04-26T04:27:38.255Z,12.52
2019-04-26T04:30:30.615Z,12.53
2019-04-26T04:33:35.891Z,12.51
2019-04-26T04:36:12.300Z,12.60
2019-04-26T04:39:12.325Z,12.88
2019-04-26T04:42:03.965Z,13.15
2019-04-26T04:45:11.492Z,13.26
2019-04-26T04:47:54.257Z,13.08
2019-04-26T04:50:35.406Z,13.14
2019-04-26T04:53:41.227Z,13.51
2019-04-26T04:56:57.533Z,13.59
2019-04-26T04:59:34.272Z,13.87
2019-04-26T05:02:40.895Z,13.93
2019-04-26T05:06:08.923Z,14.01
2019-04-26T05:08:58.686Z,14.04
2019-04-26T05:12:01.186Z,14.27
2019-04-26T05:15:08.386Z,14.31
2019-04-26T05:18:11.318Z,14.34
2019-04-26T05:21:04.890Z,14.70
2019-04-26T05:24:14.308Z,15.03
2019-04-26T05:27:38.850Z,15.23
2019-04-26T05:30:37.929Z,15.58
2019-04-26T05:33:16.646Z,15.45
2019-04-26T05:36:16.418Z,15.69
2019-04-26T05:39:07.267Z,15.58
2019-04-26T05:42:55.975Z,16.03
2019-04-26T05:46:50.619Z,16.36
2019-04-26T05:50:12.466Z,16.67
2019-04-26T05:53:27.397Z,17.22
2019-04-26T05:56:33.381Z,17.07
2019-04-26T05:59:25.536Z,17.03
2019-04-26T06:02:30.478Z,17.11
2019-04-26T06:05:34.336Z,16.97
2019-04-26T06:08:39.391Z,16.65
2019-04-26T06:11:18.198Z,16.60
2019-04-26T06:14:14.172Z,16.61
2019-04-26T06:17:45.252Z,16.87
2019-04-26T06:20:36.716Z,16.97
2019-04-26T06:23:18.347Z,17.25
2019-04-26T06:26:01.411Z,17.47
2019-04-26T06:28:56.869Z,17.55
2019-04-26T06:31:30.383Z,17.59
2019-04-26T06:34:51.748Z,18.14
2019-04-26T06:37:31.785Z,18.43
2019-04-26T06:40:14.763Z,18.85
2019-04-26T06:43:12.734Z,18.83
2019-04-26T06:46:50.438Z,19.42
2019-04-26T06:49:50.698Z,20.09
2019-04-26T06:52:22.190Z,20.00
2019-04-26T06:55:02.702Z,20.17
2019-04-26T06:58:05.011Z,20.34
2019-04-26T07:00:57.432Z,20.33
2019-04-26T07:03:46.291Z,20.64
2019-04-26T07:06:17.432Z,20.12
2019-04-26T07:09:09.244Z,21.11
2019-04-26T07:12:29.380Z,21.25
2019-04-26T07:15:28.416Z,21.11
2019-04-26T07:18:45.696Z,21.25
2019-04-26T07:21:39.716Z,20.93
2019-04-26T07:24:55.011Z,21.08
2019-04-26T07:28:12.261Z,20.82
2019-04-26T07:31:01.365Z,20.74
2019-04-26T07:34:31.808Z,20.98
2019-04-26T07:37:50.715Z,20.96
2019-04-26T07:40:54.838Z,20.66
2019-04-26T07:44:24.191Z,20.37
2019-04-26T07:47:12.608Z,21.20
2019-04-26T07:50:24.351Z,21.24
2019-04-26T07:53:35.397Z,21.38
2019-04-26T07:56:21.278Z,21.16
2019-04-26T07:59:24.531Z,21.65
2019-04-26T08:02:29.080Z,22.08
2019-04-26T08:05:07.817Z,22.84
2019-04-26T08:07:42.193Z,22.68
2019-04-26T08:10:16.319Z,23.01
2019-04-26T08:12:50.959Z,23.27
2019-04-26T08:15:39.947Z,23.44
2019-04-26T08:18:32.750Z,23.61
2019-04-26T08:21:15.240Z,23.44
2019-04-26T08:24:07.842Z,23.31
2019-04-26T08:26:39.578Z,23.71
2019-04-26T08:29:10.546Z,24.13
2019-04-26T08:31:41.680Z,24.12
2019-04-26T08:34:14.728Z,24.04
2019-04-26T08:36:52.009Z,23.81
2019-04-26T08:39:32.352Z,23.53
2019-04-26T08:41:58.086Z,23.64
2019-04-26T08:44:39.620Z,23.56
2019-04-26T08:47:29.921Z,23.50
2019-04-26T08:50:15.203Z,23.48
2019-04-26T08:52:45.253Z,23.55
2019-04-26T08:55:16.344Z,23.64
2019-04-26T08:57:47.434Z,23.47
2019-04-26T09:00:27.918Z,23.76
2019-04-26T09:03:12.135Z,23.87
2019-04-26T09:06:00.014Z,24.21
2019-04-26T09:08:33.614Z,24.68
2019-04-26T09:11:03.957Z,25.08
2019-04-26T09:13:36.001Z,25.28
2019-04-26T09:16:16.021Z,25.28
2019-04-26T09:18:48.137Z,25.37
2019-04-26T09:21:17.092Z,25.62
2019-04-26T09:24:11.271Z,25.40
2019-04-26T09:26:48.500Z,25.44
2019-04-26T09:29:30.534Z,25.31
2019-04-26T09:32:03.996Z,25.37
2019-04-26T09:34:31.770Z,25.35
2019-04-26T09:36:59.234Z,25.37
2019-04-26T09:39:26.917Z,25.34
2019-04-26T09:41:56.936Z,25.59
2019-04-26T09:44:42.990Z,25.93
2019-04-26T09:47:28.456Z,26.25
2019-04-26T09:50:04.656Z,26.25
2019-04-26T09:52:39.031Z,26.13
2019-04-26T09:55:06.966Z,26.13
2019-04-26T09:57:34.565Z,26.13
2019-04-26T10:00:02.244Z,26.28
2019-04-26T10:02:33.821Z,26.05
2019-04-26T10:04:59.179Z,25.89
2019-04-26T10:07:26.721Z,26.00
2019-04-26T10:09:56.396Z,25.80
2019-04-26T10:12:40.624Z,25.91
2019-04-26T10:15:30.332Z,26.15
2019-04-26T10:17:58.215Z,26.28
2019-04-26T10:20:25.784Z,26.30
2019-04-26T10:22:53.283Z,26.34
2019-04-26T10:25:20.849Z,26.49
2019-04-26T10:27:48.231Z,26.99
2019-04-26T10:30:17.312Z,27.40
2019-04-26T10:32:45.086Z,27.64
2019-04-26T10:35:12.680Z,27.71
2019-04-26T10:37:43.886Z,27.79
2019-04-26T10:40:10.390Z,27.74
2019-04-26T10:42:37.874Z,28.08
2019-04-26T10:45:10.379Z,27.88
2019-04-26T10:47:38.477Z,27.78
2019-04-26T10:50:08.896Z,27.86
2019-04-26T10:52:55.852Z,27.82
2019-04-26T10:55:46.442Z,27.96
2019-04-26T10:58:23.976Z,28.08
2019-04-26T11:00:55.321Z,28.03
2019-04-26T11:03:23.033Z,28.05
2019-04-26T11:05:53.800Z,28.51
2019-04-26T11:08:20.329Z,28.72
2019-04-26T11:10:49.077Z,28.77
2019-04-26T11:13:16.958Z,29.09
2019-04-26T11:15:45.623Z,28.99
2019-04-26T11:18:13.234Z,29.19
2019-04-26T11:20:41.487Z,28.98
2019-04-26T11:23:12.813Z,29.40
2019-04-26T11:25:40.508Z,29.48
2019-04-26T11:28:08.254Z,29.77
2019-04-26T11:30:35.863Z,29.97
2019-04-26T11:33:03.563Z,29.94
2019-04-26T11:35:33.159Z,30.22
2019-04-26T11:38:00.559Z,30.63
2019-04-26T11:40:28.104Z,30.61
2019-04-26T11:42:55.711Z,29.93
2019-04-26T11:45:23.306Z,29.55
2019-04-26T11:47:56.145Z,29.35
2019-04-26T11:50:20.673Z,29.02
2019-04-26T11:52:48.317Z,29.32
2019-04-26T11:55:15.882Z,29.18
2019-04-26T11:57:43.694Z,29.00
2019-04-26T12:00:21.825Z,28.82
2019-04-26T12:02:50.782Z,28.87
2019-04-26T12:05:50.110Z,28.95
2019-04-26T12:08:23.066Z,28.82
2019-04-26T12:10:50.994Z,28.25
2019-04-26T12:13:21.367Z,27.24
2019-04-26T12:15:48.869Z,27.16
2019-04-26T12:18:16.421Z,27.02
2019-04-26T12:20:44.091Z,26.78
2019-04-26T12:23:13.644Z,26.78
2019-04-26T12:25:43.613Z,26.78
2019-04-26T12:28:10.786Z,26.76
2019-04-26T12:30:38.322Z,26.55
2019-04-26T12:33:05.983Z,26.52
2019-04-26T12:35:33.537Z,26.56
2019-04-26T12:38:01.156Z,26.89
2019-04-26T12:40:29.025Z,26.89
2019-04-26T12:42:56.475Z,26.96
2019-04-26T12:45:36.065Z,27.08
2019-04-26T12:48:07.989Z,27.04
2019-04-26T12:50:37.733Z,27.18
2019-04-26T12:53:05.212Z,27.01
2019-04-26T12:55:32.705Z,26.85
2019-04-26T12:58:00.234Z,26.70
2019-04-26T13:00:33.171Z,26.69
2019-04-26T13:03:00.890Z,26.79
2019-04-26T13:05:28.755Z,26.20
2019-04-26T13:07:56.174Z,26.94
2019-04-26T13:10:48.980Z,26.88
2019-04-26T13:13:21.256Z,26.79
2019-04-26T13:16:17.537Z,26.94
2019-04-26T13:18:46.992Z,27.07
2019-04-26T13:21:14.807Z,27.09
2019-04-26T13:23:42.437Z,26.97
2019-04-26T13:26:09.969Z,27.23
2019-04-26T13:28:37.468Z,27.29
2019-04-26T13:31:04.946Z,27.28
2019-04-26T13:33:33.647Z,27.28
2019-04-26T13:36:02.951Z,27.32
2019-04-26T13:38:30.825Z,27.50
2019-04-26T13:40:59.534Z,27.85
2019-04-26T13:43:28.727Z,27.83
2019-04-26T13:46:18.965Z,27.78
2019-04-26T13:49:14.185Z,27.64
2019-04-26T13:51:41.265Z,27.61
2019-04-26T13:54:08.963Z,27.63
2019-04-26T13:56:37.599Z,27.62
2019-04-26T13:59:05.479Z,27.33
2019-04-26T14:01:32.923Z,27.43
2019-04-26T14:04:02.380Z,27.54
2019-04-26T14:06:30.127Z,27.49
2019-04-26T14:09:00.766Z,27.25
2019-04-26T14:11:29.391Z,27.36
2019-04-26T14:14:00.000Z,27.22
2019-04-26T14:16:27.497Z,27.22
2019-04-26T14:18:55.569Z,27.16
2019-04-26T14:21:23.209Z,27.33
2019-04-26T14:24:28.206Z,27.28
2019-04-26T14:26:58.764Z,27.43
2019-04-26T14:29:28.395Z,27.68
2019-04-26T14:31:55.743Z,27.50
2019-04-26T14:34:23.230Z,27.35
2019-04-26T14:36:50.800Z,27.42
2019-04-26T14:39:21.078Z,27.42
2019-04-26T14:41:47.954Z,27.42
2019-04-26T14:44:16.154Z,27.35
2019-04-26T14:46:48.937Z,27.22
2019-04-26T14:49:13.214Z,27.02
2019-04-26T14:51:40.815Z,27.06
2019-04-26T14:54:11.529Z,27.19
2019-04-26T14:56:37.635Z,27.34
2019-04-26T14:59:08.129Z,27.42
2019-04-26T15:02:02.441Z,27.37
2019-04-26T15:04:58.112Z,27.36
2019-04-26T15:07:28.248Z,27.43
2019-04-26T15:09:54.174Z,27.33
2019-04-26T15:12:22.390Z,27.39
2019-04-26T15:14:53.806Z,27.43
2019-04-26T15:17:24.271Z,27.43
2019-04-26T15:19:49.306Z,27.40
2019-04-26T15:22:16.977Z,27.33
2019-04-26T15:24:44.468Z,27.29
2019-04-26T15:27:11.907Z,27.31
2019-04-26T15:29:39.451Z,27.34
2019-04-26T15:32:07.223Z,27.51
2019-04-26T15:34:34.624Z,27.47
2019-04-26T15:37:02.999Z,27.59
2019-04-26T15:39:55.153Z,27.32
2019-04-26T15:42:38.650Z,27.50
2019-04-26T15:45:28.452Z,27.23
2019-04-26T15:48:16.206Z,27.49
2019-04-26T15:50:50.541Z,27.62
2019-04-26T15:53:14.882Z,27.43
2019-04-26T15:55:43.549Z,27.43
2019-04-26T15:58:11.303Z,27.38
2019-04-26T16:00:39.006Z,27.40
2019-04-26T16:03:07.507Z,27.43
2019-04-26T16:05:35.207Z,27.47
2019-04-26T16:08:04.559Z,27.25
2019-04-26T16:10:37.074Z,27.32
2019-04-26T16:13:16.246Z,27.35
2019-04-26T16:15:32.227Z,27.35
2019-04-26T16:17:59.835Z,27.06
2019-04-26T16:20:27.409Z,26.97
2019-04-26T16:22:54.898Z,26.83
2019-04-26T16:25:22.984Z,26.77
2019-04-26T16:28:10.067Z,26.65
2019-04-26T16:30:45.465Z,26.68
2019-04-26T16:33:17.744Z,26.58
2019-04-26T16:35:46.346Z,26.50
2019-04-26T16:38:33.079Z,26.43
2019-04-26T16:41:03.145Z,26.28
2019-04-26T16:43:37.633Z,26.18
2019-04-26T16:45:59.950Z,25.99
2019-04-26T16:48:27.652Z,26.02
2019-04-26T16:50:55.156Z,25.97
2019-04-26T16:53:42.865Z,25.80
2019-04-26T16:55:53.299Z,25.79
2019-04-26T16:58:20.999Z,25.43
2019-04-26T17:00:54.681Z,25.00
2019-04-26T17:03:17.777Z,24.67
2019-04-26T17:05:48.314Z,24.48
2019-04-26T17:08:18.974Z,24.40
2019-04-26T17:10:44.132Z,24.35
2019-04-26T17:13:13.249Z,24.44
2019-04-26T17:15:40.913Z,24.50
2019-04-26T17:18:08.471Z,24.47
2019-04-26T17:20:36.149Z,24.55
2019-04-26T17:23:33.416Z,24.60
2019-04-26T17:26:19.310Z,24.33
2019-04-26T17:28:46.987Z,24.10
2019-04-26T17:31:14.911Z,23.70
2019-04-26T17:33:42.382Z,23.48
2019-04-26T17:36:11.443Z,23.22
2019-04-26T17:38:41.913Z,23.13
2019-04-26T17:41:10.903Z,22.99
2019-04-26T17:43:40.767Z,22.97
2019-04-26T17:46:07.534Z,22.91
2019-04-26T17:48:35.035Z,22.93
2019-04-26T17:51:02.537Z,22.71
2019-04-26T17:53:33.198Z,22.66
2019-04-26T17:56:00.498Z,22.59
2019-04-26T17:58:33.621Z,22.46
2019-04-26T18:01:01.069Z,22.40
2019-04-26T18:03:27.702Z,22.37
2019-04-26T18:05:57.125Z,22.30
2019-04-26T18:08:36.090Z,22.27
2019-04-26T18:10:54.035Z,22.13
2019-04-26T18:13:21.582Z,22.13
2019-04-26T18:15:52.867Z,22.12
2019-04-26T18:18:53.954Z,22.02
2019-04-26T18:21:33.720Z,22.08
2019-04-26T18:24:02.847Z,21.96
2019-04-26T18:26:30.500Z,21.90
2019-04-26T18:28:57.946Z,21.74
2019-04-26T18:31:28.590Z,21.53
2019-04-26T18:34:00.627Z,21.68
2019-04-26T18:36:27.680Z,21.64
2019-04-26T18:38:54.533Z,21.59
2019-04-26T18:41:28.259Z,21.56
2019-04-26T18:43:54.030Z,21.40
2019-04-26T18:46:27.783Z,21.34
2019-04-26T18:48:55.324Z,21.41
2019-04-26T18:51:23.597Z,21.65
2019-04-26T18:54:14.499Z,21.77
2019-04-26T18:56:41.788Z,21.81
2019-04-26T18:59:11.710Z,21.74
2019-04-26T19:01:41.790Z,21.64
2019-04-26T19:04:12.688Z,21.37
2019-04-26T19:06:38.045Z,21.68
2019-04-26T19:09:07.665Z,21.61
2019-04-26T19:11:35.691Z,21.62
2019-04-26T19:14:26.409Z,21.64
2019-04-26T19:17:08.831Z,21.85
2019-04-26T19:19:58.581Z,21.90
2019-04-26T19:22:26.054Z,21.79
2019-04-26T19:24:56.449Z,21.86
2019-04-26T19:27:26.468Z,21.72
2019-04-26T19:29:52.219Z,21.75
2019-04-26T19:32:21.348Z,21.91
2019-04-26T19:34:49.098Z,21.86
2019-04-26T19:37:16.569Z,21.82
2019-04-26T19:39:44.093Z,21.71
2019-04-26T19:42:11.846Z,21.60
2019-04-26T19:44:39.440Z,21.47
2019-04-26T19:47:39.483Z,21.30
2019-04-26T19:50:18.220Z,21.40
2019-04-26T19:53:16.617Z,21.37
2019-04-26T19:55:56.357Z,21.20
2019-04-26T19:58:26.553Z,21.05
2019-04-26T20:00:54.052Z,21.02
2019-04-26T20:03:21.488Z,21.13
2019-04-26T20:05:49.055Z,20.93
2019-04-26T20:08:16.566Z,20.98
2019-04-26T20:10:45.927Z,21.03
2019-04-26T20:13:16.254Z,20.85
2019-04-26T20:15:43.574Z,20.83
2019-04-26T20:18:12.218Z,20.56
2019-04-26T20:20:41.440Z,20.45
2019-04-26T20:23:09.119Z,20.60
2019-04-26T20:25:37.659Z,20.45
2019-04-26T20:28:05.460Z,20.41
2019-04-26T20:31:05.834Z,20.39
2019-04-26T20:33:31.458Z,20.49
2019-04-26T20:36:01.452Z,20.42
2019-04-26T20:38:26.880Z,20.24
2019-04-26T20:40:54.367Z,20.10
2019-04-26T20:43:26.362Z,20.31
2019-04-26T20:46:10.606Z,20.09
2019-04-26T20:48:21.574Z,19.88
2019-04-26T20:50:49.360Z,19.98
2019-04-26T20:53:16.876Z,19.97
2019-04-26T20:55:47.020Z,20.00
2019-04-26T20:58:13.789Z,20.05
2019-04-26T21:00:53.729Z,20.10
2019-04-26T21:03:23.181Z,20.09
2019-04-26T21:05:46.241Z,20.15
2019-04-26T21:08:09.661Z,19.99
2019-04-26T21:10:37.214Z,19.99
2019-04-26T21:13:04.994Z,20.12
2019-04-26T21:15:35.747Z,20.18
2019-04-26T21:18:04.112Z,20.22
2019-04-26T21:20:34.509Z,20.17
2019-04-26T21:23:02.403Z,20.09
2019-04-26T21:25:56.154Z,20.10
2019-04-26T21:28:42.533Z,19.91
2019-04-26T21:31:32.702Z,19.74
2019-04-26T21:34:12.457Z,19.61
2019-04-26T21:36:46.700Z,19.64
2019-04-26T21:39:39.462Z,19.55
2019-04-26T21:42:07.150Z,19.66
2019-04-26T21:44:35.524Z,19.59
2019-04-26T21:47:03.412Z,19.42
2019-04-26T21:49:32.728Z,19.33
2019-04-26T21:52:00.480Z,19.30
2019-04-26T21:54:28.143Z,19.33
2019-04-26T21:56:55.545Z,19.33
2019-04-26T21:59:24.417Z,19.58
2019-04-26T22:01:58.808Z,19.65
2019-04-26T22:04:22.729Z,19.45
2019-04-26T22:06:53.457Z,19.48
2019-04-26T22:09:36.826Z,19.28
2019-04-26T22:12:06.552Z,19.20
2019-04-26T22:14:35.907Z,19.13
2019-04-26T22:17:24.274Z,19.17
2019-04-26T22:20:06.623Z,18.98
2019-04-26T22:22:56.613Z,18.79
2019-04-26T22:25:25.636Z,18.75
2019-04-26T22:27:57.360Z,18.82
2019-04-26T22:30:28.317Z,18.65
2019-04-26T22:32:58.399Z,18.61
2019-04-26T22:35:25.700Z,18.48
2019-04-26T22:37:53.761Z,18.44
2019-04-26T22:40:23.246Z,18.39
2019-04-26T22:42:55.044Z,18.28
2019-04-26T22:45:30.488Z,18.33
2019-04-26T22:48:11.575Z,18.40
2019-04-26T22:50:38.993Z,18.30
2019-04-26T22:53:06.475Z,18.36
2019-04-26T22:55:34.303Z,18.41
2019-04-26T22:58:03.251Z,18.55
2019-04-26T23:00:37.887Z,18.45
2019-04-26T23:03:07.260Z,18.43
2019-04-26T23:05:38.947Z,18.30
2019-04-26T23:08:04.415Z,18.31
2019-04-26T23:10:39.071Z,18.31
2019-04-26T23:13:13.248Z,18.09
2019-04-26T23:16:18.734Z,18.29
2019-04-26T23:19:25.114Z,18.11
2019-04-26T23:21:55.910Z,18.09
2019-04-26T23:24:23.767Z,17.97
2019-04-26T23:26:51.320Z,17.95
2019-04-26T23:29:19.062Z,17.96
2019-04-26T23:31:46.877Z,18.06
2019-04-26T23:34:14.432Z,17.89
2019-04-26T23:36:43.593Z,17.86
2019-04-26T23:39:13.363Z,17.80
2019-04-26T23:41:41.554Z,17.71
2019-04-26T23:44:10.081Z,17.65
2019-04-26T23:46:37.568Z,17.56
2019-04-26T23:49:04.976Z,17.23
2019-04-26T23:51:33.943Z,17.01
2019-04-26T23:54:03.215Z,16.89
2019-04-26T23:56:30.883Z,17.00
2019-04-26T23:58:58.395Z,16.95
